Aeroporto :
LOGIN :

Iscrizione | Disclaimer

   EN    FR    IT 

 










Sommario :    VFR   VFR Marginale   IFR   IFR Intensivo   IFR Molto Intensivo
Visibilità : 
Base nubi : 
>= 8 km
>= 3000ft
5 / 8 km
1000 / 3000 ft
1500m / 5 km
500 / 1000 ft
800 / 1500m
200 / 500 ft
< 800m
< 200 ft
Simboli :   Temporali  Nebbia  Neve Forte  Precipitazioni Forti  Vento > 20 kt
SIGMETs :   Varie  Temporali  Ghiacco  Turbolenza  Onda orograficha  Ceneri Vulcaniche






- Altitudine del aeroporto : 49 ft
- Codice IATA : GLZ


EHGR - Gilze-Rijen Airbase

ULTIMO METAR :
  • 270755Z AUTO 05003KT 030V100 3700 -DZRA SCT005 OVC019 06/06 Q1020 REDZ YLO TEMPO BKN004 OVC006 2500 DZRA

METARs OBSOLETI :
  • 270726Z AUTO 08003KT 040V120 4200 DZRA SCT006 BKN008 BKN012 FEW015CB 06/05 Q1019 YLO
  • 270655Z AUTO 07003KT 360V100 2700 DZ BKN009 FEW015CB 06/06 Q1019 YLO
  • 270625Z AUTO VRB02KT 3100 DZ BKN009 FEW015CB 06/06 Q1019 YLO

TAF TAF EHGR
Valido dal 27 a 06 ore il 27 a 18 ore UTC


270550Z 2706/2718 08003KT 5000 BR SCT006 BKN009 OVC013
TEMPO 2706/2714 3500 -DZ BR SCT003 BKN005
PROB40
TEMPO 2706/2714 2000 DZRA BR SCT002 OVC003
PROB40
TEMPO 2714/2718 FEW010 BKN040
BECMG 2716/2718 2500 BR MIFG



MetMap, La meteo Aeronautica in un colpo d'occhio ! - Copyright ORBIFLY Dicembre 2007 - Disclaimer

ORBIFLY MET'MAP TEAM :

Programmazione e sviluppo : Alexandra Zaïnal
Concezione : Baudouin d'Aumeries
Aiuto per la programmazione : Marc-Olivier Méhu
Supporto tecnico e logistico : Manuel Goepfert
Aiuto per la traduzione : Arnaldo La Scala

Contatto : metmap@orbifly.com




FONTI E CREDITI :

   NOAA